Time;durP1;ratioP1;P1;durP2;ratioP2;P2;SDS_P1;SDS_P2;PMS_P1;PMS_P2;Temp;Humidity;BMP_temperature;BMP_pressure;BME280_temperature;BME280_humidity;BME280_pressure;Samples;Min_cycle;Max_cycle;Signal;HPM_P1;HPM_P2
2021/04/27 00:01:14;;;;;;;14.00;4.78;;;8.40;99.90;;;;;;5074208;28;20175;-78
2021/04/27 00:03:40;;;;;;;12.98;4.80;;;8.30;99.90;;;;;;5075644;28;20201;-78
2021/04/27 00:06:06;;;;;;;9.77;4.97;;;8.30;99.90;;;;;;5074047;28;20247;-77
2021/04/27 00:08:31;;;;;;;8.02;4.90;;;8.40;99.90;;;;;;5074429;28;20284;-77
2021/04/27 00:10:58;;;;;;;9.98;4.55;;;8.50;99.90;;;;;;5074012;28;20162;-77
2021/04/27 00:13:24;;;;;;;7.03;4.78;;;8.40;99.90;;;;;;5074030;28;20567;-79
2021/04/27 00:15:50;;;;;;;11.35;4.68;;;8.40;99.90;;;;;;5075538;28;20166;-79
2021/04/27 00:18:16;;;;;;;9.05;4.03;;;8.50;99.90;;;;;;5057599;28;20171;-78
2021/04/27 00:20:41;;;;;;;10.68;4.00;;;8.30;99.90;;;;;;5070505;28;20175;-78
2021/04/27 00:23:07;;;;;;;6.15;4.55;;;8.20;99.90;;;;;;5066510;28;20548;-77
2021/04/27 00:25:33;;;;;;;9.75;4.65;;;8.10;99.90;;;;;;5073891;28;20182;-78
2021/04/27 00:27:59;;;;;;;7.75;4.47;;;8.10;99.90;;;;;;5073767;28;20418;-78
2021/04/27 00:30:26;;;;;;;11.00;4.68;;;8.20;99.90;;;;;;5075012;28;20170;-78
2021/04/27 00:32:53;;;;;;;9.85;4.53;;;8.10;99.90;;;;;;5073199;28;20215;-78
2021/04/27 00:35:19;;;;;;;5.10;4.43;;;8.20;99.90;;;;;;5074930;28;20175;-78
2021/04/27 00:37:45;;;;;;;9.73;5.32;;;8.20;99.90;;;;;;5074850;28;20165;-78
2021/04/27 00:40:13;;;;;;;10.30;4.53;;;8.20;99.90;;;;;;5073539;28;20250;-78
2021/04/27 00:42:41;;;;;;;6.78;4.10;;;8.30;99.90;;;;;;5073465;28;20281;-78
2021/04/27 00:45:10;;;;;;;8.65;4.78;;;8.20;99.90;;;;;;5074530;28;20171;-78
2021/04/27 00:47:36;;;;;;;8.80;4.45;;;8.20;99.90;;;;;;5073358;28;20213;-78
2021/04/27 00:50:04;;;;;;;7.40;4.03;;;8.20;99.90;;;;;;5073220;28;20535;-77
2021/04/27 00:52:30;;;;;;;10.95;4.88;;;8.20;99.90;;;;;;5073308;28;20195;-77
2021/04/27 00:54:56;;;;;;;14.38;4.78;;;8.20;99.90;;;;;;5073632;28;20175;-78
2021/04/27 00:57:22;;;;;;;7.40;4.60;;;8.10;99.90;;;;;;5074471;28;20199;-78
2021/04/27 00:59:49;;;;;;;15.30;4.45;;;8.00;99.90;;;;;;5073075;28;20174;-78
2021/04/27 01:02:14;;;;;;;11.68;4.07;;;8.00;99.90;;;;;;5074320;28;20542;-78
2021/04/27 01:04:40;;;;;;;10.57;5.25;;;7.90;99.90;;;;;;5074450;28;20170;-78
2021/04/27 01:07:06;;;;;;;9.27;4.93;;;7.80;99.90;;;;;;5074717;28;20170;-77
2021/04/27 01:09:48;;;;;;;14.23;5.10;;;7.80;99.90;;;;;;5074248;28;20569;-77
2021/04/27 01:12:30;;;;;;;10.85;5.00;;;7.80;99.90;;;;;;5074352;28;20195;-77
2021/04/27 01:15:18;;;;;;;9.80;4.25;;;7.70;99.90;;;;;;5072804;28;20163;-78
2021/04/27 01:17:46;;;;;;;8.75;4.07;;;7.60;99.90;;;;;;5054220;28;20254;-77
2021/04/27 01:20:19;;;;;;;7.75;4.40;;;7.60;99.90;;;;;;5054076;28;20637;-78
2021/04/27 01:22:53;;;;;;;7.75;4.88;;;7.60;99.90;;;;;;5053953;28;20195;-77
2021/04/27 01:25:35;;;;;;;8.82;4.38;;;7.60;99.90;;;;;;5073167;28;20177;-78
2021/04/27 01:28:11;;;;;;;16.70;4.63;;;7.60;99.90;;;;;;5072428;28;20237;-78
2021/04/27 01:30:40;;;;;;;7.05;4.80;;;7.60;99.90;;;;;;5073947;28;20505;-78
2021/04/27 01:33:11;;;;;;;11.70;4.70;;;7.50;99.90;;;;;;5073486;28;20237;-77
2021/04/27 01:35:38;;;;;;;5.72;4.22;;;7.50;99.90;;;;;;5056463;28;20566;-78
2021/04/27 01:38:06;;;;;;;8.70;4.47;;;7.40;99.90;;;;;;5052413;28;20223;-78
2021/04/27 01:40:32;;;;;;;12.90;4.93;;;7.50;99.90;;;;;;5053971;28;20181;-78
2021/04/27 01:43:00;;;;;;;7.60;5.10;;;7.50;99.90;;;;;;5069196;28;20179;-78
2021/04/27 01:45:27;;;;;;;9.63;5.00;;;7.50;99.90;;;;;;5053525;28;20523;-78
2021/04/27 01:47:57;;;;;;;7.25;4.03;;;7.50;99.90;;;;;;5072133;28;20612;-78
2021/04/27 01:50:25;;;;;;;5.90;4.10;;;7.50;99.90;;;;;;5072350;28;20515;-78
2021/04/27 01:52:52;;;;;;;6.60;4.97;;;7.50;99.90;;;;;;5072400;28;20205;-78
2021/04/27 01:55:19;;;;;;;8.13;4.53;;;7.40;99.90;;;;;;5071882;28;20197;-78
2021/04/27 01:57:45;;;;;;;6.45;4.22;;;7.40;99.90;;;;;;5073315;28;20171;-78
2021/04/27 02:00:13;;;;;;;13.85;5.00;;;7.40;99.90;;;;;;5073340;28;20252;-78
2021/04/27 02:02:40;;;;;;;13.85;5.57;;;7.30;99.90;;;;;;5071974;28;20236;-78
2021/04/27 02:05:06;;;;;;;17.38;4.88;;;7.30;99.90;;;;;;5072261;28;20171;-78
2021/04/27 02:07:34;;;;;;;6.38;4.40;;;7.50;99.90;;;;;;5073598;28;20191;-79
2021/04/27 02:10:03;;;;;;;6.82;4.47;;;7.60;99.90;;;;;;5071857;28;20535;-78
2021/04/27 02:12:31;;;;;;;8.07;4.55;;;7.50;99.90;;;;;;5073410;28;20677;-78
2021/04/27 02:14:56;;;;;;;6.60;4.43;;;7.40;99.90;;;;;;5073540;28;20216;-78
2021/04/27 02:17:31;;;;;;;11.68;5.15;;;7.40;99.90;;;;;;5073355;28;20175;-78
2021/04/27 02:19:59;;;;;;;8.75;5.03;;;7.40;99.90;;;;;;5072966;28;20186;-78
2021/04/27 02:22:28;;;;;;;7.07;4.80;;;7.50;99.90;;;;;;5073452;28;20249;-78
2021/04/27 02:24:55;;;;;;;7.57;4.72;;;7.50;99.90;;;;;;5071897;28;20175;-78
2021/04/27 02:27:22;;;;;;;7.80;4.70;;;7.40;99.90;;;;;;5073518;28;20258;-78
2021/04/27 02:29:48;;;;;;;8.50;4.78;;;7.30;99.90;;;;;;5074115;28;20653;-78
2021/04/27 02:32:14;;;;;;;9.00;4.65;;;7.30;99.90;;;;;;5071646;28;20602;-78
2021/04/27 02:34:43;;;;;;;10.95;5.53;;;7.20;99.90;;;;;;5071786;28;20216;-78
2021/04/27 02:37:08;;;;;;;12.82;4.50;;;7.30;99.90;;;;;;5073140;28;20265;-78
2021/04/27 02:39:34;;;;;;;10.60;5.03;;;7.20;99.90;;;;;;5072082;28;20225;-78
2021/04/27 02:42:03;;;;;;;6.07;4.90;;;7.10;99.90;;;;;;5072979;28;20680;-78
2021/04/27 02:44:28;;;;;;;4.60;4.20;;;7.10;99.90;;;;;;5073341;28;20163;-78
2021/04/27 02:46:54;;;;;;;6.30;4.38;;;7.10;99.90;;;;;;5071983;28;20171;-78
2021/04/27 02:49:20;;;;;;;6.10;4.47;;;7.00;99.90;;;;;;5077290;28;20552;-78
2021/04/27 02:51:45;;;;;;;8.82;4.40;;;7.10;99.90;;;;;;5075534;28;20201;-78
2021/04/27 02:54:11;;;;;;;7.32;4.72;;;7.10;99.90;;;;;;5058522;28;20273;-78
2021/04/27 02:56:37;;;;;;;13.38;4.70;;;7.10;99.90;;;;;;5076527;28;20177;-78
2021/04/27 02:59:04;;;;;;;9.23;4.78;;;7.10;99.90;;;;;;5075984;28;20217;-78
2021/04/27 03:01:30;;;;;;;11.98;4.82;;;7.10;99.90;;;;;;5075180;28;20184;-78
2021/04/27 03:03:55;;;;;;;5.93;5.32;;;7.20;99.90;;;;;;5075476;28;20190;-78
2021/04/27 03:06:21;;;;;;;22.60;5.25;;;7.40;99.90;;;;;;5075926;28;20257;-78
2021/04/27 03:08:47;;;;;;;13.52;4.70;;;7.50;99.90;;;;;;5075484;28;20171;-78
2021/04/27 03:11:13;;;;;;;7.53;4.38;;;7.60;99.90;;;;;;5075457;28;20171;-78
2021/04/27 03:13:39;;;;;;;8.45;4.82;;;7.80;99.90;;;;;;5076231;28;20230;-78
2021/04/27 03:16:06;;;;;;;13.98;5.05;;;7.90;99.90;;;;;;5075070;28;20178;-78
2021/04/27 03:18:31;;;;;;;7.85;4.88;;;7.90;99.90;;;;;;5058778;28;20198;-78
2021/04/27 03:20:57;;;;;;;8.90;5.18;;;7.90;99.90;;;;;;5075119;28;20252;-78
2021/04/27 03:23:23;;;;;;;7.50;4.68;;;8.00;99.90;;;;;;5076014;28;20175;-78
2021/04/27 03:25:49;;;;;;;7.60;4.47;;;7.90;99.90;;;;;;5076469;28;20163;-78
2021/04/27 03:28:15;;;;;;;12.10;4.50;;;7.70;99.90;;;;;;5058427;28;20171;-78
2021/04/27 03:30:41;;;;;;;13.52;5.22;;;7.60;99.90;;;;;;5076363;28;20611;-78
2021/04/27 03:33:07;;;;;;;7.22;4.40;;;7.50;99.90;;;;;;5074603;28;20218;-78
2021/04/27 03:35:32;;;;;;;8.23;4.63;;;7.20;99.90;;;;;;5076169;28;20205;-78
2021/04/27 03:37:58;;;;;;;10.45;5.07;;;7.10;99.90;;;;;;5075947;28;20182;-78
2021/04/27 03:40:24;;;;;;;6.10;4.97;;;7.00;99.90;;;;;;5074278;28;20213;-78
2021/04/27 03:42:50;;;;;;;13.38;5.15;;;7.00;99.90;;;;;;5075297;28;20182;-78
2021/04/27 03:45:19;;;;;;;8.48;4.97;;;7.10;99.90;;;;;;5074381;28;20171;-78
2021/04/27 03:47:45;;;;;;;10.05;4.80;;;7.20;99.90;;;;;;5076053;28;20174;-78
2021/04/27 03:50:16;;;;;;;13.82;5.38;;;7.20;99.90;;;;;;5074828;28;20174;-78
2021/04/27 03:52:42;;;;;;;5.88;5.30;;;7.30;99.90;;;;;;5075830;28;20240;-78
2021/04/27 03:55:09;;;;;;;6.95;5.38;;;7.40;99.90;;;;;;5074255;28;20175;-78
2021/04/27 03:57:35;;;;;;;7.93;5.18;;;7.40;99.90;;;;;;5054240;28;20163;-78
2021/04/27 04:00:01;;;;;;;8.82;4.97;;;7.30;99.90;;;;;;5055858;28;20194;-78
2021/04/27 04:02:26;;;;;;;13.15;5.80;;;7.30;99.90;;;;;;5054341;28;20191;-78
2021/04/27 04:04:52;;;;;;;7.25;5.28;;;7.40;99.90;;;;;;5054162;28;20582;-78
2021/04/27 04:07:18;;;;;;;7.25;5.13;;;7.50;99.90;;;;;;5071394;28;20182;-78
2021/04/27 04:09:43;;;;;;;9.73;5.10;;;7.50;99.90;;;;;;5074266;28;20545;-78
2021/04/27 04:12:09;;;;;;;13.48;6.13;;;7.50;99.90;;;;;;5075543;28;20208;-78
2021/04/27 04:14:36;;;;;;;13.57;5.70;;;7.50;99.90;;;;;;5075618;28;20216;-78
2021/04/27 04:17:03;;;;;;;11.60;5.88;;;7.50;99.90;;;;;;5074921;28;20636;-78
2021/04/27 04:19:29;;;;;;;8.05;5.80;;;7.40;99.90;;;;;;5075567;28;20154;-78
2021/04/27 04:21:54;;;;;;;9.30;5.70;;;7.40;99.90;;;;;;5074197;28;20185;-78
2021/04/27 04:24:20;;;;;;;6.38;5.70;;;7.50;99.90;;;;;;5075126;28;20254;-78
2021/04/27 04:26:46;;;;;;;15.90;6.32;;;7.50;99.90;;;;;;5073668;28;20186;-79
2021/04/27 04:29:12;;;;;;;7.32;5.32;;;7.50;99.90;;;;;;5073841;28;20171;-78
2021/04/27 04:31:37;;;;;;;15.07;5.75;;;7.50;99.90;;;;;;5074850;28;20178;-78
2021/04/27 04:34:03;;;;;;;16.02;6.05;;;7.50;99.90;;;;;;5075238;28;20182;-78
2021/04/27 04:36:29;;;;;;;6.22;5.63;;;7.40;99.90;;;;;;5074857;28;20209;-78
2021/04/27 04:38:55;;;;;;;15.88;5.70;;;7.40;99.90;;;;;;5074428;28;20178;-78
2021/04/27 04:41:20;;;;;;;10.27;5.80;;;7.60;99.90;;;;;;5073890;28;20244;-78
2021/04/27 04:43:46;;;;;;;9.13;5.85;;;7.70;99.90;;;;;;5073651;28;20623;-78
2021/04/27 04:46:12;;;;;;;20.67;6.43;;;7.70;99.90;;;;;;5073694;28;20177;-78
2021/04/27 04:48:37;;;;;;;14.65;6.63;;;7.70;99.90;;;;;;5074255;28;20206;-78
2021/04/27 04:51:04;;;;;;;13.23;5.80;;;7.70;99.90;;;;;;5074853;28;20265;-78
2021/04/27 04:53:29;;;;;;;6.78;5.45;;;7.70;99.90;;;;;;5073368;28;20194;-78
2021/04/27 04:55:55;;;;;;;9.07;5.88;;;7.70;99.90;;;;;;5056604;28;20232;-78
2021/04/27 04:58:21;;;;;;;13.90;5.85;;;7.70;99.90;;;;;;5073384;28;20364;-78
2021/04/27 05:00:47;;;;;;;8.77;6.93;;;7.80;99.90;;;;;;5073170;28;20179;-78
2021/04/27 05:03:12;;;;;;;20.23;6.15;;;8.00;99.90;;;;;;5073927;28;20183;-78
2021/04/27 05:05:38;;;;;;;18.13;6.78;;;8.30;99.90;;;;;;5072452;28;20174;-78
2021/04/27 05:08:20;;;;;;;11.60;6.50;;;8.50;99.90;;;;;;5073499;28;20518;-78
2021/04/27 05:10:46;;;;;;;18.52;6.43;;;8.70;99.90;;;;;;5064004;28;20151;-78
2021/04/27 05:13:11;;;;;;;13.68;5.25;;;8.80;99.90;;;;;;5072107;28;20682;-78
2021/04/27 05:15:37;;;;;;;9.45;6.22;;;8.70;99.90;;;;;;5072242;28;20244;-78
2021/04/27 05:18:03;;;;;;;9.45;5.60;;;8.80;99.90;;;;;;5072335;28;20185;-78
2021/04/27 05:20:28;;;;;;;10.23;6.35;;;8.60;99.90;;;;;;5073397;28;20171;-78
2021/04/27 05:22:54;;;;;;;10.35;6.05;;;8.60;99.90;;;;;;5055516;28;20674;-78
2021/04/27 05:25:20;;;;;;;9.70;6.45;;;8.40;99.90;;;;;;5071659;28;20175;-78
2021/04/27 05:27:46;;;;;;;12.05;5.90;;;8.20;99.90;;;;;;5055481;28;20300;-78
2021/04/27 05:30:13;;;;;;;12.40;5.70;;;8.20;99.90;;;;;;5071931;28;20209;-78
2021/04/27 05:32:39;;;;;;;13.68;5.80;;;8.50;99.90;;;;;;5073031;28;20744;-78
2021/04/27 05:35:06;;;;;;;8.18;5.53;;;8.50;99.90;;;;;;5073323;28;20175;-78
2021/04/27 05:37:32;;;;;;;18.15;5.97;;;8.50;99.90;;;;;;5071657;28;20631;-78
2021/04/27 05:39:57;;;;;;;9.32;6.03;;;8.40;99.90;;;;;;5069532;28;20218;-78
2021/04/27 05:42:23;;;;;;;9.32;5.78;;;8.60;99.90;;;;;;5071676;28;20178;-78
2021/04/27 05:44:49;;;;;;;13.43;6.32;;;9.10;99.90;;;;;;5072956;28;20216;-78
2021/04/27 05:47:14;;;;;;;7.85;5.78;;;9.20;99.90;;;;;;5071650;28;20710;-78
2021/04/27 05:49:40;;;;;;;11.30;6.03;;;9.50;99.90;;;;;;5072725;28;20163;-78
2021/04/27 05:52:06;;;;;;;21.48;5.50;;;9.70;99.90;;;;;;5054658;28;20214;-78
2021/04/27 05:54:33;;;;;;;8.00;6.10;;;10.10;99.90;;;;;;5073608;28;20170;-78
2021/04/27 05:56:59;;;;;;;10.75;5.72;;;11.10;99.90;;;;;;5072628;28;20171;-78
2021/04/27 05:59:24;;;;;;;19.30;5.55;;;12.70;99.90;;;;;;5071377;28;20623;-78
2021/04/27 06:01:50;;;;;;;6.22;5.07;;;13.80;99.90;;;;;;5049800;28;601058;-78
2021/04/27 06:04:16;;;;;;;11.43;5.38;;;14.00;99.90;;;;;;5072105;28;20253;-78
2021/04/27 06:06:42;;;;;;;7.53;5.20;;;13.00;99.90;;;;;;5106113;28;20253;-78
2021/04/27 06:09:08;;;;;;;12.23;5.47;;;12.60;99.90;;;;;;5073358;28;20175;-78
2021/04/27 06:11:34;;;;;;;13.25;5.80;;;12.40;99.90;;;;;;5072034;28;20169;-78
2021/04/27 06:14:00;;;;;;;11.38;5.65;;;11.60;99.90;;;;;;5072926;28;20203;-78
2021/04/27 06:16:27;;;;;;;11.07;5.80;;;11.70;99.90;;;;;;5073536;28;20186;-78
2021/04/27 06:18:53;;;;;;;15.30;6.13;;;11.40;99.90;;;;;;5072050;28;20539;-78
2021/04/27 06:21:19;;;;;;;18.15;6.30;;;11.30;99.90;;;;;;5072955;28;20245;-78
2021/04/27 06:23:44;;;;;;;6.93;6.20;;;11.50;99.90;;;;;;5073263;28;20167;-78
2021/04/27 06:26:10;;;;;;;8.73;5.85;;;11.80;99.90;;;;;;5073030;28;20231;-78
2021/04/27 06:28:36;;;;;;;16.52;6.07;;;12.30;99.90;;;;;;5072013;28;20171;-78
2021/04/27 06:31:01;;;;;;;8.10;5.90;;;12.60;99.90;;;;;;5073018;28;20271;-78
2021/04/27 06:33:28;;;;;;;34.33;6.53;;;13.60;99.90;;;;;;5071757;28;20210;-78
2021/04/27 06:35:54;;;;;;;11.23;4.93;;;14.90;99.90;;;;;;5072463;28;20650;-78
2021/04/27 06:38:20;;;;;;;11.48;5.65;;;16.20;99.90;;;;;;5072880;28;20170;-78
2021/04/27 06:40:49;;;;;;;9.48;5.38;;;17.20;98.00;;;;;;5071781;28;20177;-78
2021/04/27 06:43:15;;;;;;;17.83;6.53;;;18.10;96.10;;;;;;5071944;28;20171;-78
2021/04/27 06:45:41;;;;;;;13.70;6.10;;;19.40;94.40;;;;;;5071452;28;20198;-78
2021/04/27 06:48:07;;;;;;;8.98;5.95;;;20.60;91.20;;;;;;5071847;28;20210;-78
2021/04/27 06:50:35;;;;;;;5.78;4.68;;;21.70;88.10;;;;;;5072732;28;20213;-79
2021/04/27 06:53:01;;;;;;;15.02;6.00;;;21.10;87.50;;;;;;5072604;28;20378;-78
2021/04/27 06:55:27;;;;;;;18.70;6.00;;;21.40;85.30;;;;;;5072754;28;20178;-79
2021/04/27 06:57:53;;;;;;;16.48;6.00;;;21.60;85.80;;;;;;5072915;28;20202;-80
2021/04/27 07:00:19;;;;;;;13.00;5.78;;;22.30;83.00;;;;;;5071613;28;20209;-79
2021/04/27 07:02:45;;;;;;;11.88;5.55;;;23.40;80.20;;;;;;5071470;28;20265;-79
2021/04/27 07:05:11;;;;;;;24.30;5.82;;;23.40;78.30;;;;;;5073078;28;20593;-79
2021/04/27 07:07:37;;;;;;;11.93;5.35;;;23.90;76.60;;;;;;5072628;28;20183;-79
2021/04/27 07:10:03;;;;;;;13.75;5.35;;;22.90;76.60;;;;;;5072070;28;20514;-79
2021/04/27 07:12:29;;;;;;;16.20;5.88;;;22.40;77.60;;;;;;5054704;28;20194;-79
2021/04/27 07:14:54;;;;;;;18.60;6.05;;;22.40;77.30;;;;;;5072669;28;20224;-80
2021/04/27 07:17:20;;;;;;;27.33;6.72;;;23.90;77.10;;;;;;5071052;28;20682;-80
2021/04/27 07:19:46;;;;;;;16.23;6.05;;;24.70;73.40;;;;;;5072629;28;20173;-79
2021/04/27 07:22:12;;;;;;;13.30;6.10;;;26.50;69.60;;;;;;5072872;28;20243;-80
2021/04/27 07:24:38;;;;;;;18.90;6.18;;;27.70;67.20;;;;;;5072618;28;20627;-79
2021/04/27 07:27:04;;;;;;;14.38;5.20;;;28.40;64.70;;;;;;5072691;28;20163;-80
2021/04/27 07:29:30;;;;;;;17.67;5.13;;;29.40;62.20;;;;;;5071125;28;20200;-78
2021/04/27 07:31:56;;;;;;;12.68;5.50;;;30.90;60.20;;;;;;5051090;28;20203;-78
2021/04/27 07:34:22;;;;;;;12.57;5.80;;;31.00;59.10;;;;;;5055122;28;20237;-77
2021/04/27 07:36:48;;;;;;;13.52;5.63;;;31.90;57.20;;;;;;5056336;28;20591;-78
2021/04/27 07:39:14;;;;;;;16.20;4.95;;;31.00;57.30;;;;;;5067696;28;20175;-78
2021/04/27 07:41:41;;;;;;;16.55;5.63;;;31.60;56.90;;;;;;5075825;28;20194;-76
2021/04/27 07:44:07;;;;;;;13.10;4.88;;;32.30;55.50;;;;;;5074908;28;20177;-77
2021/04/27 07:46:33;;;;;;;17.15;5.40;;;32.20;55.30;;;;;;5074986;28;20178;-76
2021/04/27 07:48:59;;;;;;;12.32;5.60;;;32.70;54.50;;;;;;5074418;28;20277;-77
2021/04/27 07:51:25;;;;;;;18.30;5.35;;;33.30;53.00;;;;;;5074880;28;20167;-76
2021/04/27 07:53:51;;;;;;;13.20;5.28;;;32.80;52.70;;;;;;5074674;28;20205;-76
2021/04/27 07:56:16;;;;;;;18.13;4.53;;;32.70;53.50;;;;;;5070150;28;20178;-76
2021/04/27 07:58:42;;;;;;;8.65;5.20;;;33.80;53.10;;;;;;5056237;28;20187;-76
2021/04/27 08:01:08;;;;;;;7.32;4.65;;;34.00;53.00;;;;;;5075570;28;20182;-77
2021/04/27 08:03:33;;;;;;;14.52;5.13;;;33.90;52.30;;;;;;5090467;28;20667;-77
2021/04/27 08:05:59;;;;;;;11.05;5.15;;;31.90;50.60;;;;;;5074506;28;20250;-77
2021/04/27 08:08:25;;;;;;;24.55;5.13;;;33.20;53.00;;;;;;5074055;28;20269;-77
2021/04/27 08:10:50;;;;;;;18.67;4.82;;;34.80;51.40;;;;;;5054171;28;20269;-77
2021/04/27 08:13:16;;;;;;;10.20;4.70;;;35.80;50.00;;;;;;5055423;28;20195;-77
2021/04/27 08:15:43;;;;;;;9.75;5.20;;;35.90;51.00;;;;;;5055296;28;20178;-76
2021/04/27 08:18:09;;;;;;;17.48;5.07;;;34.90;49.40;;;;;;5056061;28;20167;-77
2021/04/27 08:20:36;;;;;;;12.82;4.97;;;35.90;47.50;;;;;;5057982;28;20556;-77
2021/04/27 08:23:02;;;;;;;12.85;5.13;;;33.20;48.80;;;;;;5074963;28;20719;-77
2021/04/27 08:25:28;;;;;;;19.05;5.18;;;31.10;51.00;;;;;;5074169;28;20513;-77
2021/04/27 08:27:54;;;;;;;13.93;6.85;;;30.50;54.10;;;;;;5055286;28;20179;-77
2021/04/27 08:30:22;;;;;;;14.13;5.82;;;30.00;54.00;;;;;;5055331;28;20167;-77
2021/04/27 08:32:49;;;;;;;13.23;5.53;;;30.40;54.10;;;;;;5070377;28;20201;-76
2021/04/27 08:35:15;;;;;;;26.17;7.10;;;30.10;53.60;;;;;;5056023;28;20186;-76
2021/04/27 08:37:41;;;;;;;13.90;5.75;;;30.60;53.40;;;;;;5055090;28;20170;-76
2021/04/27 08:40:09;;;;;;;13.65;6.72;;;31.00;52.40;;;;;;5055156;28;20171;-78
2021/04/27 08:42:35;;;;;;;11.60;5.80;;;29.50;52.80;;;;;;5064163;28;20671;-78
2021/04/27 08:45:04;;;;;;;13.18;5.88;;;28.40;53.90;;;;;;5072815;28;20185;-78
2021/04/27 08:47:30;;;;;;;12.20;5.72;;;28.10;54.80;;;;;;5074621;28;20689;-78
2021/04/27 08:49:56;;;;;;;16.75;5.97;;;27.90;55.50;;;;;;5068638;28;20178;-78
2021/04/27 08:52:21;;;;;;;17.88;6.68;;;28.00;55.40;;;;;;5063556;28;20174;-78
2021/04/27 08:54:47;;;;;;;15.98;6.20;;;27.60;55.10;;;;;;5060940;28;20258;-78
2021/04/27 08:57:13;;;;;;;12.80;6.15;;;26.90;55.10;;;;;;5069939;28;20270;-78
2021/04/27 08:59:40;;;;;;;18.83;6.50;;;25.00;57.10;;;;;;5065721;28;20270;-77
2021/04/27 09:02:05;;;;;;;7.40;6.68;;;24.90;58.00;;;;;;5064418;28;20674;-79
2021/04/27 09:04:43;;;;;;;15.45;7.10;;;25.30;58.30;;;;;;5071167;28;20328;-78
2021/04/27 09:07:11;;;;;;;15.82;6.70;;;26.80;56.60;;;;;;5074606;28;20159;-78
2021/04/27 09:09:39;;;;;;;10.88;7.00;;;27.90;54.80;;;;;;5060933;28;20201;-78
2021/04/27 09:12:05;;;;;;;13.85;6.25;;;29.00;54.80;;;;;;5066092;28;20662;-78
2021/04/27 09:14:34;;;;;;;10.63;6.20;;;30.10;54.50;;;;;;5073180;28;20205;-78
2021/04/27 09:17:02;;;;;;;11.52;6.03;;;29.50;52.20;;;;;;5072945;28;20194;-80
2021/04/27 09:19:46;;;;;;;11.77;7.10;;;29.60;55.50;;;;;;5063725;28;20207;-79
2021/04/27 09:22:23;;;;;;;10.65;5.90;;;30.10;52.70;;;;;;5064827;28;20190;-79
2021/04/27 09:24:57;;;;;;;7.63;6.38;;;29.40;52.50;;;;;;5074157;28;20626;-79
2021/04/27 09:27:32;;;;;;;16.15;6.43;;;29.80;53.90;;;;;;5064347;28;20178;-79
2021/04/27 09:30:20;;;;;;;13.68;6.47;;;31.50;52.80;;;;;;5063530;28;20170;-79
2021/04/27 09:32:57;;;;;;;13.73;6.13;;;33.50;51.20;;;;;;5074038;28;20175;-78
2021/04/27 09:35:40;;;;;;;7.88;6.63;;;34.70;48.10;;;;;;5066640;28;20179;-79
2021/04/27 09:38:18;;;;;;;11.57;5.25;;;35.20;47.30;;;;;;5068570;28;20169;-78
2021/04/27 09:41:04;;;;;;;9.80;5.72;;;33.70;46.50;;;;;;5068350;28;20178;-79
2021/04/27 09:43:38;;;;;;;16.95;5.93;;;31.70;48.40;;;;;;5072746;28;20194;-78
2021/04/27 09:46:07;;;;;;;8.60;6.28;;;33.50;47.50;;;;;;5071973;28;20666;-77
2021/04/27 09:48:44;;;;;;;10.25;6.10;;;35.10;47.00;;;;;;5071292;28;20198;-77
2021/04/27 09:51:13;;;;;;;14.55;6.07;;;34.70;47.30;;;;;;5105097;28;20170;-77
2021/04/27 09:53:55;;;;;;;10.70;6.10;;;33.60;48.60;;;;;;5071227;28;20199;-77
2021/04/27 09:56:47;;;;;;;19.17;5.32;;;32.90;47.40;;;;;;5073185;28;20162;-77
2021/04/27 09:59:19;;;;;;;16.35;6.53;;;32.20;48.10;;;;;;5067992;28;20531;-77
2021/04/27 10:01:54;;;;;;;17.25;6.40;;;32.40;48.60;;;;;;5070614;28;20194;-77
2021/04/27 10:04:20;;;;;;;11.93;6.05;;;34.40;48.40;;;;;;5071294;28;20622;-77
2021/04/27 10:06:48;;;;;;;14.23;6.40;;;34.90;47.40;;;;;;5042067;28;20203;-77
2021/04/27 10:09:14;;;;;;;21.98;6.80;;;31.90;48.10;;;;;;5070716;28;20194;-76
2021/04/27 10:11:41;;;;;;;12.05;6.30;;;32.10;49.40;;;;;;5072142;28;20170;-77
2021/04/27 10:14:09;;;;;;;14.20;5.95;;;33.40;47.70;;;;;;5072319;28;20182;-77
2021/04/27 10:16:35;;;;;;;11.75;5.35;;;35.40;48.20;;;;;;5054750;28;20174;-77
2021/04/27 10:19:05;;;;;;;9.65;5.13;;;36.10;44.70;;;;;;5057622;28;20261;-77
2021/04/27 10:21:33;;;;;;;14.85;6.75;;;32.50;47.30;;;;;;5052145;28;20189;-77
2021/04/27 10:24:03;;;;;;;8.77;5.22;;;30.90;46.50;;;;;;5060745;28;20206;-77
2021/04/27 10:26:31;;;;;;;6.32;5.55;;;29.50;48.90;;;;;;5067107;28;20233;-77
2021/04/27 10:29:19;;;;;;;9.55;6.25;;;29.90;48.20;;;;;;5067576;28;20186;-79
2021/04/27 10:31:46;;;;;;;11.93;6.22;;;32.30;47.90;;;;;;5052591;28;20160;-79
2021/04/27 10:34:19;;;;;;;15.27;6.57;;;34.30;47.30;;;;;;5077916;28;20186;-77
2021/04/27 10:36:48;;;;;;;16.63;6.38;;;36.10;46.80;;;;;;5071704;28;20170;-77
2021/04/27 10:39:14;;;;;;;9.85;5.70;;;36.20;44.20;;;;;;5065818;28;20240;-79
2021/04/27 10:41:46;;;;;;;10.27;5.40;;;36.10;45.70;;;;;;5054448;28;20198;-77
2021/04/27 10:44:13;;;;;;;12.95;6.22;;;36.10;44.40;;;;;;5073129;28;20171;-77
2021/04/27 10:46:39;;;;;;;6.60;5.95;;;36.60;44.10;;;;;;5071627;28;20178;-77
2021/04/27 10:49:30;;;;;;;8.02;5.40;;;37.20;44.00;;;;;;5054207;28;20228;-77
2021/04/27 10:51:57;;;;;;;8.77;5.85;;;34.00;42.70;;;;;;5071520;28;20191;-78
2021/04/27 10:54:29;;;;;;;5.30;4.93;;;29.80;47.00;;;;;;5072305;28;20185;-78
2021/04/27 10:57:13;;;;;;;10.88;4.93;;;30.80;47.80;;;;;;5073030;28;20209;-80
2021/04/27 11:00:01;;;;;;;15.45;5.25;;;33.60;45.70;;;;;;5069306;28;20192;-79
2021/04/27 11:02:29;;;;;;;5.38;4.88;;;34.30;43.90;;;;;;5053029;28;20714;-79
2021/04/27 11:04:58;;;;;;;8.48;4.95;;;35.60;42.60;;;;;;5059684;28;20170;-80
2021/04/27 11:07:24;;;;;;;7.93;5.35;;;35.40;43.20;;;;;;5067038;28;20174;-80
2021/04/27 11:10:02;;;;;;;12.63;4.95;;;36.30;42.90;;;;;;5075885;28;20177;-79
2021/04/27 11:12:44;;;;;;;5.13;4.57;;;36.90;44.00;;;;;;5076391;28;20162;-80
2021/04/27 11:15:19;;;;;;;18.17;5.20;;;36.60;44.60;;;;;;5078872;28;20207;-79
2021/04/27 11:18:19;;;;;;;6.00;5.22;;;35.60;43.80;;;;;;5081254;28;20658;-80
2021/04/27 11:20:46;;;;;;;7.75;5.80;;;35.60;44.10;;;;;;5039447;28;20193;-79
2021/04/27 11:23:38;;;;;;;8.88;5.47;;;35.70;43.60;;;;;;5069967;28;20203;-79
2021/04/27 11:26:33;;;;;;;9.60;5.80;;;35.80;43.70;;;;;;5063130;28;20206;-78
2021/04/27 11:29:05;;;;;;;10.10;5.47;;;37.00;42.90;;;;;;5074263;28;20181;-79
2021/04/27 11:31:52;;;;;;;7.72;5.85;;;37.10;43.40;;;;;;5075856;28;20154;-79
2021/04/27 11:34:17;;;;;;;6.10;5.60;;;37.30;43.30;;;;;;5099187;28;20239;-79
2021/04/27 11:36:43;;;;;;;6.80;6.30;;;35.90;43.70;;;;;;5075431;28;20174;-81
2021/04/27 11:39:14;;;;;;;6.63;6.00;;;35.50;43.30;;;;;;5057618;28;20266;-80
2021/04/27 11:41:59;;;;;;;9.57;6.68;;;35.30;43.90;;;;;;5072166;28;20220;-78
2021/04/27 11:44:37;;;;;;;7.20;6.57;;;35.90;43.10;;;;;;5074362;28;20185;-84
2021/04/27 11:47:15;;;;;;;11.55;6.45;;;35.70;43.30;;;;;;5075836;28;20234;-81
2021/04/27 11:49:53;;;;;;;9.60;6.25;;;36.60;42.90;;;;;;5057150;28;20262;-78
2021/04/27 11:52:51;;;;;;;26.60;7.28;;;36.40;42.80;;;;;;5056122;28;20185;-82
2021/04/27 11:55:21;;;;;;;6.22;5.70;;;36.30;42.90;;;;;;5068709;28;20273;-86
2021/04/27 11:57:59;;;;;;;8.77;5.80;;;36.10;42.30;;;;;;5075945;28;20603;-82
2021/04/27 12:00:40;;;;;;;6.35;5.85;;;35.30;44.20;;;;;;5071115;28;20177;-81
2021/04/27 12:03:32;;;;;;;8.13;6.10;;;33.60;44.40;;;;;;5072742;28;20749;-80
2021/04/27 12:05:59;;;;;;;11.25;5.60;;;33.10;44.40;;;;;;5074128;28;20265;-84
2021/04/27 12:08:31;;;;;;;6.50;6.00;;;32.40;46.40;;;;;;5074945;28;20191;-83
2021/04/27 12:11:15;;;;;;;9.63;5.15;;;31.80;44.40;;;;;;5076028;28;20675;-84
2021/04/27 12:13:44;;;;;;;7.18;5.55;;;30.80;45.30;;;;;;5061554;28;20229;-84
2021/04/27 12:16:25;;;;;;;6.55;5.93;;;30.80;44.60;;;;;;5074232;28;20562;-84
2021/04/27 12:19:09;;;;;;;11.02;5.75;;;31.50;45.40;;;;;;5063236;28;20638;-86
2021/04/27 12:21:51;;;;;;;12.25;5.80;;;31.30;43.80;;;;;;5063401;28;20213;-80
2021/04/27 12:24:32;;;;;;;6.60;5.80;;;31.00;45.90;;;;;;5055780;28;20224;-81
2021/04/27 12:27:15;;;;;;;8.27;5.60;;;29.50;45.30;;;;;;5075451;28;20158;-83
2021/04/27 12:29:57;;;;;;;7.75;5.80;;;27.80;47.80;;;;;;5071848;28;20206;-83
2021/04/27 12:32:30;;;;;;;7.25;6.00;;;25.20;47.80;;;;;;5065609;28;20179;-82
2021/04/27 12:35:03;;;;;;;6.10;5.45;;;24.10;51.50;;;;;;5072714;28;20170;-83
2021/04/27 12:37:32;;;;;;;8.57;5.55;;;23.30;51.20;;;;;;5069956;28;20261;-82
2021/04/27 12:40:00;;;;;;;5.07;4.65;;;22.80;51.30;;;;;;5055159;28;20161;-80
2021/04/27 12:42:28;;;;;;;12.65;5.85;;;21.60;52.40;;;;;;5056469;28;20750;-80
2021/04/27 12:45:08;;;;;;;5.95;5.28;;;20.70;55.10;;;;;;5073245;28;20216;-82
2021/04/27 12:47:37;;;;;;;5.97;5.47;;;20.80;54.30;;;;;;5071750;28;20224;-82
2021/04/27 12:50:13;;;;;;;8.15;5.80;;;21.00;53.40;;;;;;5054978;28;20174;-82
2021/04/27 12:52:54;;;;;;;7.30;5.10;;;21.20;52.80;;;;;;5065524;28;20174;-83
2021/04/27 12:55:19;;;;;;;7.80;6.13;;;21.20;53.60;;;;;;5074785;28;20250;-81